createdAt,value
2022-07-25T00:02:08.853Z,2.85
2022-07-25T00:07:11.135Z,2.70
2022-07-25T00:12:12.828Z,2.50
2022-07-25T00:17:14.706Z,2.65
2022-07-25T00:22:16.411Z,2.60
2022-07-25T00:27:18.252Z,2.60
2022-07-25T00:32:19.993Z,3.00
2022-07-25T00:37:21.723Z,2.70
2022-07-25T00:42:24.191Z,2.83
2022-07-25T00:47:26.249Z,2.70
2022-07-25T00:52:28.110Z,3.17
2022-07-25T00:57:29.957Z,2.95
2022-07-25T01:02:31.691Z,3.20
2022-07-25T01:07:33.720Z,4.00
2022-07-25T01:12:49.784Z,3.72
2022-07-25T01:17:52.052Z,4.30
2022-07-25T01:22:54.410Z,3.78
2022-07-25T01:27:56.322Z,3.75
2022-07-25T01:32:58.130Z,3.67
2022-07-25T01:37:59.805Z,3.63
2022-07-25T01:43:01.517Z,3.53
2022-07-25T01:48:03.450Z,3.40
2022-07-25T01:53:05.328Z,3.50
2022-07-25T01:58:07.428Z,3.67
2022-07-25T02:03:28.053Z,3.55
2022-07-25T02:08:31.109Z,4.05
2022-07-25T02:13:32.944Z,4.25
2022-07-25T02:18:34.711Z,4.22
2022-07-25T02:23:37.212Z,4.55
2022-07-25T02:28:39.646Z,4.10
2022-07-25T02:33:41.538Z,4.28
2022-07-25T02:38:43.379Z,4.13
2022-07-25T02:43:45.096Z,4.47
2022-07-25T02:48:46.931Z,5.18
2022-07-25T02:53:57.076Z,4.30
2022-07-25T02:59:00.122Z,4.70
2022-07-25T03:04:02.054Z,4.65
2022-07-25T03:09:04.551Z,5.03
2022-07-25T03:14:08.768Z,6.28
2022-07-25T03:19:12.742Z,5.05
2022-07-25T03:24:14.804Z,5.10
2022-07-25T03:29:16.538Z,4.90
2022-07-25T03:34:18.339Z,4.97
2022-07-25T03:39:20.732Z,5.10
2022-07-25T03:44:24.412Z,5.20
2022-07-25T03:49:26.118Z,5.07
2022-07-25T03:54:27.838Z,5.20
2022-07-25T03:59:29.550Z,5.45
2022-07-25T04:04:31.344Z,6.28
2022-07-25T04:09:33.671Z,5.47
2022-07-25T04:14:35.699Z,6.20
2022-07-25T04:19:37.444Z,5.63
2022-07-25T04:24:39.257Z,5.55
2022-07-25T04:29:40.982Z,5.82
2022-07-25T04:34:43.765Z,6.18
2022-07-25T04:39:45.593Z,6.13
2022-07-25T04:44:47.285Z,5.90
2022-07-25T04:49:49.249Z,6.38
2022-07-25T04:54:50.960Z,6.90
2022-07-25T04:59:52.675Z,6.60
2022-07-25T05:04:54.365Z,6.22
2022-07-25T05:09:56.214Z,6.15
2022-07-25T05:14:57.977Z,6.13
2022-07-25T05:19:59.741Z,6.10
2022-07-25T05:25:02.484Z,7.05
2022-07-25T05:30:05.912Z,7.22
2022-07-25T05:35:08.716Z,6.82
2022-07-25T05:40:10.649Z,6.90
2022-07-25T05:45:12.657Z,7.40
2022-07-25T05:50:14.369Z,7.78
2022-07-25T05:55:17.039Z,7.72
2022-07-25T06:00:18.980Z,7.10
2022-07-25T06:05:20.808Z,7.82
2022-07-25T06:10:22.600Z,7.78
2022-07-25T06:15:27.043Z,7.82
2022-07-25T06:20:29.505Z,7.57
2022-07-25T06:25:31.395Z,7.35
2022-07-25T06:30:33.528Z,7.28
2022-07-25T06:35:35.521Z,7.57
2022-07-25T06:40:37.295Z,8.05
2022-07-25T06:45:39.036Z,7.18
2022-07-25T06:50:40.843Z,7.82
2022-07-25T06:55:42.658Z,7.75
2022-07-25T07:00:44.485Z,8.57
2022-07-25T07:05:46.250Z,8.10
2022-07-25T07:10:47.999Z,7.90
2022-07-25T07:15:50.901Z,7.82
2022-07-25T07:20:53.548Z,7.80
2022-07-25T07:25:55.315Z,7.88
2022-07-25T07:36:19.535Z,7.90
2022-07-25T07:41:21.497Z,7.70
2022-07-25T07:46:23.298Z,8.15
2022-07-25T07:51:25.002Z,8.82
2022-07-25T07:56:26.724Z,8.13
2022-07-25T08:01:28.520Z,7.40
2022-07-25T08:06:30.288Z,8.45
2022-07-25T08:11:32.085Z,8.38
2022-07-25T08:16:34.331Z,7.88
2022-07-25T08:21:36.167Z,8.65
2022-07-25T08:26:37.966Z,8.35
2022-07-25T08:31:39.708Z,7.80
2022-07-25T08:36:41.459Z,7.38
2022-07-25T08:41:43.624Z,7.07
2022-07-25T08:46:46.161Z,7.22
2022-07-25T08:51:51.786Z,7.80
2022-07-25T08:56:54.357Z,7.20
2022-07-25T09:01:56.109Z,7.20
2022-07-25T09:06:57.855Z,7.18
2022-07-25T09:12:00.041Z,7.50
2022-07-25T09:17:06.637Z,7.25
2022-07-25T09:22:24.605Z,7.00
2022-07-25T09:27:26.365Z,7.70
2022-07-25T09:32:29.184Z,7.20
2022-07-25T09:37:30.862Z,6.97
2022-07-25T09:42:33.047Z,7.20
2022-07-25T09:47:37.029Z,7.10
2022-07-25T09:52:39.243Z,6.75
2022-07-25T09:57:41.416Z,7.25
2022-07-25T10:02:55.275Z,7.72
2022-07-25T10:07:57.378Z,6.78
2022-07-25T10:13:29.358Z,6.65
2022-07-25T10:18:31.564Z,7.25
2022-07-25T10:23:33.318Z,6.82
2022-07-25T10:28:41.645Z,7.25
2022-07-25T10:33:43.454Z,6.85
2022-07-25T10:38:46.349Z,7.32
2022-07-25T10:43:50.868Z,6.60
2022-07-25T10:49:03.851Z,6.70
2022-07-25T10:54:16.592Z,6.50
2022-07-25T10:59:36.266Z,7.20
2022-07-25T11:04:38.030Z,6.63
2022-07-25T11:09:41.611Z,6.32
2022-07-25T11:14:43.496Z,6.57
2022-07-25T11:19:55.206Z,6.38
2022-07-25T11:24:57.856Z,6.60
2022-07-25T11:30:14.826Z,6.55
2022-07-25T11:35:21.842Z,6.65
2022-07-25T11:40:23.894Z,6.43
2022-07-25T11:45:28.428Z,6.32
2022-07-25T11:50:31.792Z,6.45
2022-07-25T11:55:40.801Z,7.00
2022-07-25T12:00:48.790Z,6.35
2022-07-25T12:05:50.764Z,7.13
2022-07-25T12:10:52.480Z,6.38
2022-07-25T12:15:56.289Z,6.40
2022-07-25T12:20:58.031Z,6.95
2022-07-25T12:25:59.858Z,6.43
2022-07-25T12:31:01.663Z,6.80
2022-07-25T12:36:08.300Z,6.68
2022-07-25T12:41:13.465Z,7.30
2022-07-25T12:46:17.889Z,7.43
2022-07-25T12:51:20.408Z,6.55
2022-07-25T12:56:22.210Z,6.35
2022-07-25T13:01:23.944Z,6.72
2022-07-25T13:06:25.801Z,6.70
2022-07-25T13:11:27.615Z,5.88
2022-07-25T13:16:29.431Z,5.93
2022-07-25T13:21:31.328Z,6.07
2022-07-25T13:26:33.447Z,6.03
2022-07-25T13:31:36.031Z,5.90
2022-07-25T13:36:38.857Z,5.50
2022-07-25T13:41:40.790Z,6.10
2022-07-25T13:46:46.078Z,6.57
2022-07-25T13:51:48.107Z,5.72
2022-07-25T13:56:49.886Z,5.75
2022-07-25T14:01:51.625Z,5.60
2022-07-25T14:06:53.710Z,6.57
2022-07-25T14:11:55.484Z,5.57
2022-07-25T14:16:58.112Z,6.28
2022-07-25T14:21:59.867Z,5.90
2022-07-25T14:27:02.490Z,5.50
2022-07-25T14:32:08.306Z,5.82
2022-07-25T14:37:10.174Z,5.35
2022-07-25T14:42:12.099Z,5.40
2022-07-25T14:47:13.964Z,5.43
2022-07-25T14:52:16.455Z,5.90
2022-07-25T14:57:18.694Z,5.75
2022-07-25T15:02:20.510Z,6.35
2022-07-25T15:07:22.310Z,6.03
2022-07-25T15:12:24.013Z,5.57
2022-07-25T15:17:25.882Z,5.82
2022-07-25T15:22:27.654Z,6.88
2022-07-25T15:27:29.495Z,6.25
2022-07-25T15:32:31.199Z,6.60
2022-07-25T15:37:33.015Z,6.60
2022-07-25T15:42:35.168Z,6.38
2022-07-25T15:47:38.507Z,6.30
2022-07-25T15:52:40.176Z,6.07
2022-07-25T15:57:42.007Z,6.03
2022-07-25T16:02:44.963Z,6.82
2022-07-25T16:07:46.753Z,6.57
2022-07-25T16:12:49.007Z,6.63
2022-07-25T16:17:52.992Z,7.28
2022-07-25T16:22:56.028Z,7.50
2022-07-25T16:27:58.448Z,11.98
2022-07-25T16:33:00.160Z,13.13
2022-07-25T16:38:02.002Z,12.40
2022-07-25T16:43:06.811Z,11.45
2022-07-25T16:48:09.101Z,13.10
2022-07-25T16:53:10.873Z,12.55
2022-07-25T16:58:12.682Z,13.85
2022-07-25T17:03:16.064Z,11.95
2022-07-25T17:08:18.188Z,12.35
2022-07-25T17:13:20.158Z,12.00
2022-07-25T17:18:21.990Z,12.02
2022-07-25T17:23:23.919Z,12.90
2022-07-25T17:28:25.732Z,14.60
2022-07-25T17:33:28.036Z,13.60
2022-07-25T17:38:34.656Z,16.45
2022-07-25T17:43:36.986Z,13.18
2022-07-25T17:48:39.335Z,18.77
2022-07-25T17:53:41.193Z,11.63
2022-07-25T17:58:42.990Z,11.52
2022-07-25T18:03:47.611Z,10.10
2022-07-25T18:08:49.324Z,11.60
2022-07-25T18:13:51.124Z,10.98
2022-07-25T18:18:52.865Z,11.15
2022-07-25T18:23:54.625Z,11.20
2022-07-25T18:28:56.364Z,10.98
2022-07-25T18:33:58.082Z,11.02
2022-07-25T18:39:00.264Z,11.25
2022-07-25T18:44:01.977Z,11.80
2022-07-25T18:49:03.996Z,12.95
2022-07-25T18:54:06.401Z,12.73
2022-07-25T18:59:08.740Z,12.57
2022-07-25T19:04:11.507Z,11.07
2022-07-25T19:09:13.493Z,11.60
2022-07-25T19:14:15.278Z,12.25
2022-07-25T19:19:17.929Z,11.95
2022-07-25T19:24:19.749Z,12.38
2022-07-25T19:29:21.532Z,11.65
2022-07-25T19:34:23.900Z,11.88
2022-07-25T19:39:25.632Z,11.73
2022-07-25T19:44:27.356Z,11.35
2022-07-25T19:49:29.161Z,11.18
2022-07-25T19:54:30.966Z,10.88
2022-07-25T19:59:32.924Z,11.98
2022-07-25T20:04:34.805Z,11.30
2022-07-25T20:09:36.649Z,11.55
2022-07-25T20:14:38.555Z,11.43
2022-07-25T20:19:40.571Z,13.13
2022-07-25T20:24:42.344Z,12.77
2022-07-25T20:29:44.251Z,11.90
2022-07-25T20:34:46.062Z,11.68
2022-07-25T20:39:48.312Z,12.15
2022-07-25T20:44:50.877Z,11.63
2022-07-25T20:49:52.662Z,9.73
2022-07-25T20:54:54.594Z,10.57
2022-07-25T20:59:56.335Z,10.57
2022-07-25T21:04:58.142Z,10.43
2022-07-25T21:09:59.987Z,10.15
2022-07-25T21:15:01.857Z,10.35
2022-07-25T21:20:05.155Z,9.73
2022-07-25T21:25:08.013Z,10.32
2022-07-25T21:30:10.990Z,9.98
2022-07-25T21:35:12.712Z,10.88
2022-07-25T21:40:14.712Z,9.88
2022-07-25T21:45:16.589Z,10.70
2022-07-25T21:50:36.874Z,10.40
2022-07-25T21:55:45.582Z,10.40
2022-07-25T22:00:47.360Z,9.80
2022-07-25T22:05:49.108Z,9.55
2022-07-25T22:10:51.061Z,10.50
2022-07-25T22:15:53.802Z,9.30
2022-07-25T22:20:55.979Z,9.43
2022-07-25T22:25:57.690Z,9.73
2022-07-25T22:30:59.454Z,8.48
2022-07-25T22:36:01.699Z,8.73
2022-07-25T22:41:03.582Z,8.55
2022-07-25T22:46:05.329Z,9.25
2022-07-25T22:51:07.084Z,8.27
2022-07-25T22:56:09.070Z,8.60
2022-07-25T23:01:10.958Z,8.90
2022-07-25T23:06:12.945Z,7.65
2022-07-25T23:11:14.764Z,8.32
2022-07-25T23:16:16.641Z,7.80
2022-07-25T23:21:18.408Z,7.68
2022-07-25T23:26:20.130Z,8.07
2022-07-25T23:31:21.957Z,8.05
2022-07-25T23:36:23.716Z,7.93
2022-07-25T23:41:25.469Z,8.25
2022-07-25T23:46:30.842Z,8.57
2022-07-25T23:51:33.230Z,7.90
2022-07-25T23:56:34.913Z,8.68
